ADDS METAR Data INFO
IDs: Format: Raw Decoded Include TAF

Data at: 1513 UTC 11 Dec 2017

KSJX 111455Z AUTO 00000KT 10SM BKN031 OVC037 M05/M09 A2989 RMK AO2 T10501091
KSJX 111435Z AUTO 12003KT 10SM SCT029 OVC036 M06/M09 A2989 RMK AO2 T10611091
KSJX 111415Z AUTO 12003KT 10SM SCT032 OVC039 M07/M09 A2990 RMK AO2 T10701092
KSJX 111355Z AUTO 11003KT 10SM OVC033 M07/M10 A2991 RMK AO2 T10711097
KSJX 111335Z AUTO 00000KT 10SM OVC033 M07/M10 A2992 RMK AO2 T10731099
KSJX 111315Z AUTO 00000KT 10SM OVC030 M07/M10 A2992 RMK AO2 T10731097
KSJX 111255Z AUTO 00000KT 10SM OVC028 M07/M10 A2993 RMK AO2 T10731100
KSJX 111235Z AUTO 00000KT 10SM BKN027 OVC033 M07/M10 A2993 RMK AO2 T10721105
KSJX 111215Z AUTO 00000KT 10SM BKN027 OVC032 M08/M10 A2993 RMK AO2 T10761102
KSJX 111155Z AUTO 00000KT 10SM OVC027 M07/M11 A2993 RMK AO2 T10721107 11061 21075
KSJX 111135Z AUTO 09003KT 10SM OVC027 M07/M11 A2993 RMK AO2 T10711107
KSJX 111116Z AUTO 12003KT 10SM OVC027 M07/M11 A2993 RMK AO2 T10711107
KSJX 111055Z AUTO 13003KT 10SM OVC029 M07/M11 A2994 RMK AO2 T10721108
KSJX 111035Z AUTO 00000KT 10SM OVC027 M07/M11 A2995 RMK AO2 T10671109
KSJX 111015Z AUTO 00000KT 10SM OVC027 M07/M11 A2995 RMK AO2 T10671110
KSJX 110955Z AUTO 00000KT 10SM OVC027 M06/M11 A2996 RMK AO2 T10641113
KSJX 110935Z AUTO 00000KT 10SM OVC027 M06/M11 A2997 RMK AO2 T10641115
KSJX 110915Z AUTO 00000KT 10SM OVC027 M06/M11 A2998 RMK AO2 T10651113
KSJX 110855Z AUTO 27003KT 10SM OVC027 M06/M11 A2998 RMK AO2 T10651114
KSJX 110835Z AUTO 29003KT 10SM OVC027 M06/M12 A2999 RMK AO2 T10651116
KSJX 110815Z AUTO 29005KT 10SM -SN OVC027 M06/M11 A3000 RMK AO2 T10631110
KSJX 110755Z AUTO 28005KT 10SM OVC029 M06/M12 A3001 RMK AO2 T10631118
KSJX 110735Z AUTO 28003KT 10SM OVC027 M06/M11 A3001 RMK AO2 T10631115
KSJX 110715Z AUTO 29006KT 10SM -SN OVC029 M06/M11 A3001 RMK AO2 T10621115
KSJX 110655Z AUTO 33004KT 10SM OVC029 M06/M12 A3000 RMK AO2 T10641120
KSJX 110635Z AUTO 32004KT 10SM OVC029 M06/M11 A3000 RMK AO2 T10651115
KSJX 110615Z AUTO 00000KT 10SM OVC031 M07/M12 A3000 RMK AO2 T10661121
KSJX 110555Z AUTO 32005KT 10SM OVC031 M07/M13 A3000 RMK AO2 T10671131 11067 21078
KSJX 110535Z AUTO 32004KT 10SM OVC033 M07/M12 A3000 RMK AO2 T10691122
KSJX 110515Z AUTO 34004KT 10SM OVC033 M07/M13 A2999 RMK AO2 T10701126
KSJX 110455Z AUTO 35006KT 10SM OVC031 M07/M13 A3000 RMK AO2 T10691127
KSJX 110435Z AUTO 33008KT 290V010 10SM BKN029 OVC035 M07/M12 A3000 RMK AO2 T10701122
KSJX 110415Z AUTO 33007KT 10SM BKN030 OVC037 M07/M13 A3001 RMK AO2 T10701133
KSJX 110355Z AUTO 31008KT 10SM OVC028 M07/M12 A3001 RMK AO2 T10701125 410281078
KSJX 110335Z AUTO 34006KT 10SM OVC030 M07/M12 A3001 RMK AO2 T10701121
KSJX 110315Z AUTO 34008KT 320V020 10SM BKN030 OVC035 M07/M12 A3001 RMK AO2 T10701124
KSJX 110255Z AUTO 33007KT 10SM BKN030 OVC036 M07/M12 A3001 RMK AO2 T10701125
KSJX 110235Z AUTO 34010KT 290V350 10SM BKN030 OVC037 M07/M13 A3000 RMK AO2 T10711128
KSJX 110215Z AUTO 32009G19KT 10SM BKN032 OVC039 M07/M13 A3000 RMK AO2 T10721131
KSJX 110155Z AUTO 33006G16KT 10SM BKN031 OVC037 M07/M13 A3001 RMK AO2 T10731129
KSJX 110135Z AUTO 34006G15KT 10SM BKN029 OVC035 M07/M12 A3001 RMK AO2 T10721124
KSJX 110115Z AUTO 33005G15KT 10SM BKN031 OVC038 M07/M13 A3000 RMK AO2 T10751128
KSJX 110055Z AUTO 32009G21KT 10SM BKN031 OVC038 M07/M13 A3000 RMK AO2 T10731127
KSJX 110035Z AUTO 34007KT 10SM OVC036 M08/M13 A2999 RMK AO2 T10761131
KSJX 110015Z AUTO 34010G17KT 10SM BKN029 OVC037 M08/M13 A2999 RMK AO2 T10771135
KSJX 102355Z AUTO 33010G15KT 10SM OVC029 M08/M13 A2999 RMK AO2 T10781130 11035 21078
KSJX 102335Z AUTO 34010G16KT 310V010 10SM BKN029 OVC034 M08/M13 A2998 RMK AO2 T10781129
KSJX 102315Z AUTO 34012G16KT 10SM BKN029 OVC033 M08/M12 A2997 RMK AO2 T10761124
KSJX 102255Z AUTO 35010G21KT 10SM BKN028 OVC034 M07/M12 A2996 RMK AO2 T10741121
KSJX 102235Z AUTO 34013G21KT 10SM BKN028 OVC035 M07/M12 A2994 RMK AO2 T10721121
KSJX 102215Z AUTO 33010G19KT 10SM OVC028 M07/M11 A2992 RMK AO2 T10701115
KSJX 102155Z AUTO 34008G16KT 10SM OVC028 M06/M11 A2991 RMK AO2 T10651110
KSJX 102135Z AUTO 34006G15KT 5SM -SN OVC027 M06/M10 A2990 RMK AO2 T10611105
KSJX 102115Z AUTO 33008G18KT 10SM -SN BKN025 OVC032 M06/M10 A2989 RMK AO2 T10571105
KSJX 102055Z AUTO 33013G17KT 10SM BKN023 BKN030 OVC036 M05/M10 A2988 RMK AO2 T10551100
KSJX 102035Z AUTO 33011G18KT 10SM BKN018 OVC026 M05/M09 A2987 RMK AO2 T10531090
KSJX 102015Z AUTO 33010G18KT 4SM -SN SCT017 BKN022 OVC046 M05/M08 A2985 RMK AO2 T10501080
KSJX 101955Z AUTO 34013G18KT 10SM -SN BKN025 BKN030 OVC036 M04/M08 A2984 RMK AO2 T10451085
KSJX 101935Z AUTO 34008G14KT 310V030 10SM OVC026 M04/M09 A2983 RMK AO2 T10401087
KSJX 101915Z AUTO 35010KT 10SM OVC026 M04/M09 A2982 RMK AO2 T10401087
KSJX 101855Z AUTO 34008KT 10SM OVC022 M04/M08 A2981 RMK AO2 T10381080
KSJX 101835Z AUTO 35010G15KT 10SM BKN018 BKN025 OVC043 M04/M07 A2981 RMK AO2 T10361073
KSJX 101815Z AUTO 33010G17KT 10SM SCT016 BKN022 OVC045 M03/M07 A2980 RMK AO2 T10351071
KSJX 101755Z AUTO 33010G17KT 10SM BKN017 BKN043 OVC050 M03/M07 A2980 RMK AO2 T10351066 11028 21048
KSJX 101735Z AUTO 32009G17KT 10SM BKN015 BKN021 OVC044 M03/M06 A2979 RMK AO2 T10301060
KSJX 101715Z AUTO 29007KT 10SM SCT013 SCT019 OVC044 M03/M06 A2979 RMK AO2 T10301057
KSJX 101655Z AUTO 28007G14KT 10SM SCT013 BKN017 OVC042 M03/M05 A2979 RMK AO2 T10301055
KSJX 101635Z AUTO 29010G14KT 7SM -SN BKN011 BKN017 OVC022 M03/M05 A2979 RMK AO2 T10301052
KSJX 101615Z AUTO 29008G15KT 3SM -SN BKN009 OVC014 M03/M05 A2979 RMK AO2 T10301048
KSJX 101555Z AUTO 28011G16KT 2SM -SN OVC011 M03/M05 A2979 RMK AO2 T10301047
KSJX 101535Z AUTO 28008KT 1 1/2SM -SN OVC009 M03/M05 A2978 RMK AO2 T10311047
KSJX 101515Z AUTO 26011G14KT 1 1/4SM -SN OVC009 M03/M05 A2978 RMK AO2 T10341047
KSJX 101455Z AUTO 27009KT 1 3/4SM -SN OVC009 M04/M05 A2978 RMK AO2 T10371051
KSJX 101435Z AUTO 27009KT 1 1/4SM -SN OVC011 M04/M05 A2978 RMK AO2 T10391054
KSJX 101415Z AUTO 26012KT 7SM -SN SCT013 BKN023 OVC035 M04/M06 A2978 RMK AO2 T10401063
KSJX 101355Z AUTO 26011KT 10SM -SN BKN030 OVC035 M04/M07 A2978 RMK AO2 T10421068
KSJX 101335Z AUTO 26010KT 10SM SCT014 BKN032 OVC038 M05/M07 A2978 RMK AO2 T10461073
KSJX 101315Z AUTO 28007KT 10SM SCT014 BKN041 OVC070 M05/M07 A2978 RMK AO2 T10461072
KSJX 101255Z AUTO 29007KT 250V310 10SM SCT016 BKN070 OVC080 M05/M08 A2978 RMK AO2 T10481078
KSJX 101235Z AUTO 30008KT 10SM BKN016 OVC090 M05/M07 A2978 RMK AO2 T10481075
KSJX 101215Z AUTO 28009G15KT 10SM SCT016 OVC090 M05/M08 A2978 RMK AO2 T10471077
KSJX 101155Z AUTO 27009G14KT 10SM SCT018 BKN024 OVC090 M05/M08 A2978 RMK AO2 T10471080 11045 21061
KSJX 101135Z AUTO 28009G18KT 10SM BKN020 OVC024 M04/M07 A2978 RMK AO2 T10451074
KSJX 101115Z AUTO 28008G18KT 10SM SCT018 BKN023 OVC090 M04/M07 A2978 RMK AO2 T10451075
KSJX 101055Z AUTO 27009G15KT 10SM SCT018 SCT022 OVC090 M05/M08 A2978 RMK AO2 T10461081
KSJX 101035Z AUTO 27012G16KT 10SM SCT023 OVC090 M05/M09 A2978 RMK AO2 T10461090
KSJX 101015Z AUTO 27012G18KT 10SM SCT023 OVC100 M05/M09 A2978 RMK AO2 T10481092
KSJX 100955Z AUTO 27010G17KT 10SM SCT023 SCT028 OVC100 M05/M09 A2978 RMK AO2 T10471095
KSJX 100935Z AUTO 27013G18KT 10SM SCT023 SCT049 OVC100 M05/M09 A2979 RMK AO2 T10471093
KSJX 100915Z AUTO 26013KT 10SM BKN023 BKN042 OVC060 M05/M09 A2979 RMK AO2 T10501088
KSJX 100855Z AUTO 27010G18KT 10SM SCT020 BKN025 OVC060 M05/M09 A2980 RMK AO2 T10521088
KSJX 100835Z AUTO 26015G18KT 10SM BKN023 BKN046 OVC065 M05/M09 A2980 RMK AO2 T10551092
KSJX 100815Z AUTO 26013G18KT 10SM SCT020 BKN025 OVC120 M05/M09 A2981 RMK AO2 T10551091
KSJX 100755Z AUTO 27011KT 10SM BKN023 OVC120 M06/M10 A2982 RMK AO2 T10581101
KSJX 100735Z AUTO 27009G16KT 250V310 10SM BKN023 OVC120 M06/M09 A2982 RMK AO2 T10581093
KSJX 100715Z AUTO 26012G16KT 10SM OVC021 M06/M09 A2983 RMK AO2 T10581090
KSJX 100655Z AUTO 27013G16KT 10SM OVC019 M06/M09 A2983 RMK AO2 T10591088
KSJX 100635Z AUTO 26012G16KT 10SM OVC019 M06/M09 A2984 RMK AO2 T10601090
KSJX 100615Z AUTO 28009G16KT 10SM OVC021 M06/M09 A2985 RMK AO2 T10601091
KSJX 100555Z AUTO 26010KT 10SM BKN019 OVC025 M06/M09 A2986 RMK AO2 T10601093 11053 21060
KSJX 100535Z AUTO 26011KT 10SM BKN019 OVC025 M06/M09 A2987 RMK AO2 T10601094
KSJX 100515Z AUTO 28009KT 10SM BKN022 OVC029 M06/M09 A2988 RMK AO2 T10591095
KSJX 100455Z AUTO 28008G14KT 10SM BKN022 BKN026 OVC031 M06/M09 A2988 RMK AO2 T10581094
KSJX 100435Z AUTO 27006KT 10SM SCT022 OVC029 M06/M09 A2989 RMK AO2 T10571094
KSJX 100415Z AUTO 28006KT 10SM SCT022 OVC029 M06/M09 A2990 RMK AO2 T10571095
KSJX 100355Z AUTO 28006KT 10SM SCT020 BKN030 OVC035 M06/M09 A2990 RMK AO2 T10571095 410271060
KSJX 100335Z AUTO 29006KT 10SM SCT020 SCT026 OVC031 M06/M10 A2990 RMK AO2 T10571097
KSJX 100315Z AUTO 29008KT 10SM BKN028 OVC035 M06/M10 A2990 RMK AO2 T10561096